Details From DTTA - CARTHAGE
To LIMC - Milano Malpensa
Flight Number -
Tags None
Created
Modified
Stats Distance 537 nm / 995 km
Max Altitude 34,000 ft / 10,363 m
Waypoints 10
Social Downloads 1
Likes 0
Share VATSIM

Download

Looking for another format? Having issues loading an existing format? Contact us
Advertisement - Login to hide

Notes

None

Route

DTTA OSMAR CAR BAREN TALIN MILNO OLETI GEN EVANO LIMC

ID Type Via Altitude Latitude Longitude Leg Dist Tot Dist Heading (true) Name
O DTTA APT - 22 ft / 7 m 36.85127˚ 10.23003˚ - 0 nm - CARTHAGE
OSMAR FIX - 20,000 ft / 6,096 m 38.25472˚ 9.78722˚ 86 nm 86 nm 346° / 346° -
CAR VOR - 34,000 ft / 10,363 m 39.11139˚ 9.50806˚ 53 nm 139 nm 346° / 346° CARBONARA VOR-DME
BAREN FIX - 20,000 ft / 6,096 m 40.41472˚ 9.33500˚ 78 nm 218 nm 354° / 354° -
TALIN FIX - 15,000 ft / 4,572 m 41.03833˚ 9.57167˚ 38 nm 257 nm 16° / 16° -
MILNO FIX - 15,000 ft / 4,572 m 42.89694˚ 9.21194˚ 112 nm 370 nm 352° / 352° -
OLETI FIX - 10,000 ft / 3,048 m 43.81000˚ 9.00861˚ 55 nm 425 nm 351° / 351° -
GEN VOR - 10,000 ft / 3,048 m 44.42444˚ 9.08233˚ 37 nm 462 nm 5° / 5° GENOVA VOR-DME
EVANO FIX - 2,700 ft / 823 m 45.33750˚ 8.76083˚ 56 nm 519 nm 346° / 346° -
O LIMC APT - 767 ft / 234 m 45.63061˚ 8.72811˚ 17 nm 537 nm 356° / 356° Milano Malpensa

Altitude Profile

Advertisement - Login to hide

Weather


0- 5 10 15 20 25 30 35+ Temperature / ° C

Clouds and Precipitation
Forecast for 2018-05-21 12:00 UTC. Updated 38 minutes ago

Ground ~20,000 ft ~40,000 ft Winds

DTTA

Details ICAO DTTA (TUN)
Name CARTHAGE
Region Tunisia
Timezone Africa/Tunis (UTC+1.0)
Stats Elevation 22 ft / 7 m (AMSL)
Location 36.851267° 10.230027°
Runways 2
Magnetic Variation 2.445° E

METAR

DTTA 210930Z 34004KT 300V020 9999 SCT020 SCT033 21/17 Q1011 NOSIG

Decode

TAF

TAF DTTA 210529Z 2106/2206 22008KT 8000 RA SCT026 BKN036= TAF DTMB 210529Z 2106/2206 36006KT 8000 FEW020

Decode

Departure Runways

ID Width Length Bearing (true) Bearing (mag) Surface Threshold Offset Overrun Length
01 148 ft / 45 m 10,502 ft / 3,201 m 12.29° 9.85° Asphalt 0 ft / 0 m 197 ft / 60 m
11 148 ft / 45 m 9,345 ft / 2,848 m 112.55° 110.11° Asphalt 0 ft / 0 m 643 ft / 196 m
19 148 ft / 45 m 10,502 ft / 3,201 m 192.29° 189.85° Asphalt 0 ft / 0 m 197 ft / 60 m
29 148 ft / 45 m 9,345 ft / 2,848 m 292.57° 290.13° Asphalt 657 ft / 200 m 197 ft / 60 m

LIMC

Details ICAO LIMC (MXP)
Name Milano Malpensa
Region Italy
Timezone Europe/Rome (UTC+2.0)
Stats Elevation 767 ft / 234 m (AMSL)
Location 45.630606° 8.728111°
Runways 2
Magnetic Variation 2.427° E

METAR

LIMC 210920Z 36010KT 9999 BKN060 20/12 Q1016 NOSIG

Decode

TAF

TAF LIMC 210500Z 2106/2212 35007KT 9999 BKN050

Decode

Destination Runways

ID Width Length Bearing (true) Bearing (mag) Surface Threshold Offset Overrun Length
17L 197 ft / 60 m 12,869 ft / 3,923 m 169.62° 167.19° Asphalt 3,094 ft / 943 m 0 ft / 0 m
17R 197 ft / 60 m 12,869 ft / 3,923 m 169.62° 167.19° Asphalt 0 ft / 0 m 0 ft / 0 m
35L 197 ft / 60 m 12,869 ft / 3,923 m 349.62° 347.19° Asphalt 1,329 ft / 405 m 0 ft / 0 m
35R 197 ft / 60 m 12,869 ft / 3,923 m 349.62° 347.19° Asphalt 0 ft / 0 m 0 ft / 0 m

Approach Navaids

Runway Type Ident Frequency Range Bearing (true) Bearing (mag) Slope Elevation
17L Localiser IMSL 110.75 MHz 20 nm / 37 km 169.59° 167.16° - 697 ft / 212 m (AMSL)
17L Glidescope IMSL 110.75 MHz 10 nm / 19 km 169.62° 167.19° 3.00° 792 ft / 241 m (AMSL)
17L DME IMSL 110.75 MHz 25 nm / 46 km - - - 792 ft / 241 m (AMSL)
35L Localiser IMA 109.10 MHz 18 nm / 33 km 349.59° 347.16° - 767 ft / 234 m (AMSL)
35L Glidescope IMA 109.10 MHz 10 nm / 19 km 349.62° 347.19° 3.00° 768 ft / 234 m (AMSL)
35L DME IMA 109.10 MHz 25 nm / 46 km - - - 768 ft / 234 m (AMSL)
35R Localiser MLP 109.90 MHz 18 nm / 33 km 349.07° 346.64° - 780 ft / 238 m (AMSL)
35R Glidescope MLP 109.90 MHz 10 nm / 19 km 349.62° 347.19° 3.00° 740 ft / 226 m (AMSL)
35R DME MLP 109.90 MHz 18 nm / 33 km - - - 713 ft / 217 m (AMSL)

Popular Alternatives